createdAt,value
2022-10-01T00:01:02.251Z,11.30
2022-10-01T00:03:29.934Z,12.00
2022-10-01T00:06:04.298Z,12.15
2022-10-01T00:08:32.500Z,14.77
2022-10-01T00:11:02.697Z,9.73
2022-10-01T00:13:30.478Z,16.15
2022-10-01T00:15:59.403Z,12.48
2022-10-01T00:18:26.723Z,11.57
2022-10-01T00:20:53.826Z,14.77
2022-10-01T00:23:20.932Z,15.13
2022-10-01T00:25:50.140Z,12.88
2022-10-01T00:28:17.338Z,14.50
2022-10-01T00:30:48.110Z,10.00
2022-10-01T00:33:15.179Z,10.40
2022-10-01T00:35:42.228Z,11.60
2022-10-01T00:38:09.575Z,10.77
2022-10-01T00:40:36.865Z,15.02
2022-10-01T00:43:20.005Z,15.88
2022-10-01T00:45:47.295Z,12.80
2022-10-01T00:48:14.709Z,11.60
2022-10-01T00:50:41.808Z,10.65
2022-10-01T00:53:12.156Z,7.25
2022-10-01T00:58:08.444Z,11.95
2022-10-01T01:00:36.515Z,12.52
2022-10-01T01:03:04.693Z,13.02
2022-10-01T01:05:32.411Z,10.85
2022-10-01T01:08:01.799Z,10.75
2022-10-01T01:10:49.407Z,8.57
2022-10-01T01:13:16.817Z,7.00
2022-10-01T01:15:56.544Z,9.75
2022-10-01T01:18:31.179Z,12.13
2022-10-01T01:21:02.574Z,10.98
2022-10-01T01:24:03.974Z,11.63
2022-10-01T01:29:02.540Z,12.85
2022-10-01T01:31:34.295Z,10.68
2022-10-01T01:34:04.504Z,7.18
2022-10-01T01:36:37.040Z,6.72
2022-10-01T01:39:07.202Z,8.07
2022-10-01T01:41:36.550Z,7.40
2022-10-01T01:44:07.020Z,7.90
2022-10-01T01:49:06.179Z,8.70
2022-10-01T01:51:36.558Z,7.78
2022-10-01T01:54:04.416Z,9.25
2022-10-01T01:56:32.176Z,7.70
2022-10-01T01:59:01.002Z,10.20
2022-10-01T02:01:33.919Z,8.75
2022-10-01T02:04:05.430Z,7.90
2022-10-01T02:06:42.583Z,11.63
2022-10-01T02:09:14.578Z,8.05
2022-10-01T02:11:47.451Z,4.35
2022-10-01T02:14:31.403Z,8.40
2022-10-01T02:17:02.631Z,9.10
2022-10-01T02:19:40.510Z,8.07
2022-10-01T02:22:18.533Z,6.65
2022-10-01T02:24:57.195Z,5.15
2022-10-01T02:27:24.788Z,5.32
2022-10-01T02:29:53.315Z,7.15
2022-10-01T02:32:20.868Z,4.90
2022-10-01T02:34:49.652Z,5.95
2022-10-01T02:37:18.876Z,7.55
2022-10-01T02:39:47.378Z,6.72
2022-10-01T02:42:16.765Z,5.90
2022-10-01T02:44:45.270Z,5.57
2022-10-01T02:47:12.565Z,8.45
2022-10-01T02:49:42.674Z,2.75
2022-10-01T02:52:13.572Z,5.03
2022-10-01T02:54:47.667Z,6.13
2022-10-01T02:57:27.646Z,5.13
2022-10-01T02:59:57.674Z,5.47
2022-10-01T03:02:27.628Z,4.78
2022-10-01T03:04:56.965Z,4.03
2022-10-01T03:07:28.112Z,4.72
2022-10-01T03:09:55.438Z,5.13
2022-10-01T03:12:23.550Z,3.35
2022-10-01T03:14:51.204Z,4.82
2022-10-01T03:17:18.376Z,4.32
2022-10-01T03:19:45.511Z,3.60
2022-10-01T03:22:14.010Z,3.83
2022-10-01T03:24:41.415Z,5.07
2022-10-01T03:27:08.944Z,4.25
2022-10-01T03:29:38.869Z,6.10
2022-10-01T03:32:08.462Z,4.43
2022-10-01T03:34:35.834Z,5.63
2022-10-01T03:40:21.735Z,5.93
2022-10-01T03:42:50.060Z,5.30
2022-10-01T03:45:17.241Z,5.57
2022-10-01T03:47:44.580Z,5.65
2022-10-01T03:50:13.013Z,7.95
2022-10-01T03:52:52.361Z,9.02
2022-10-01T03:55:20.587Z,6.05
2022-10-01T03:57:51.091Z,8.35
2022-10-01T04:00:21.071Z,7.75
2022-10-01T04:02:53.737Z,8.38
2022-10-01T04:05:23.755Z,6.85
2022-10-01T04:07:52.227Z,5.57
2022-10-01T04:10:21.563Z,6.90
2022-10-01T04:12:48.641Z,6.95
2022-10-01T04:15:18.241Z,6.20
2022-10-01T04:17:46.182Z,6.68
2022-10-01T04:20:13.392Z,5.88
2022-10-01T04:22:40.955Z,6.68
2022-10-01T04:25:11.724Z,9.00
2022-10-01T04:27:41.832Z,7.82
2022-10-01T04:30:10.304Z,8.20
2022-10-01T04:32:38.223Z,6.95
2022-10-01T04:35:07.387Z,10.98
2022-10-01T04:37:34.471Z,11.50
2022-10-01T04:40:04.568Z,10.05
2022-10-01T04:44:58.820Z,8.50
2022-10-01T04:47:25.895Z,8.75
2022-10-01T04:49:52.958Z,8.63
2022-10-01T04:52:20.028Z,11.98
2022-10-01T04:54:47.122Z,11.25
2022-10-01T04:57:14.187Z,15.32
2022-10-01T04:59:41.262Z,10.57
2022-10-01T05:02:08.410Z,8.70
2022-10-01T05:04:35.559Z,12.10
2022-10-01T05:07:02.634Z,10.48
2022-10-01T05:09:29.736Z,12.63
2022-10-01T05:11:56.824Z,12.43
2022-10-01T05:14:24.782Z,9.35
2022-10-01T05:16:51.843Z,14.57
2022-10-01T05:19:18.923Z,11.55
2022-10-01T05:21:46.169Z,9.45
2022-10-01T05:24:13.243Z,12.77
2022-10-01T05:26:40.300Z,6.60
2022-10-01T05:29:07.407Z,12.32
2022-10-01T05:31:34.883Z,10.15
2022-10-01T05:34:02.450Z,13.52
2022-10-01T05:36:29.499Z,9.73
2022-10-01T05:38:59.551Z,8.95
2022-10-01T05:41:26.710Z,11.38
2022-10-01T05:43:53.841Z,7.90
2022-10-01T05:46:20.937Z,11.95
2022-10-01T05:48:53.634Z,10.18
2022-10-01T05:51:20.723Z,13.05
2022-10-01T05:53:50.511Z,12.40
2022-10-01T05:56:17.751Z,10.63
2022-10-01T05:58:46.717Z,11.00
2022-10-01T06:01:14.060Z,12.68
2022-10-01T06:03:41.148Z,10.60
2022-10-01T06:06:08.206Z,11.27
2022-10-01T06:08:35.636Z,11.45
2022-10-01T06:11:03.009Z,13.13
2022-10-01T06:13:30.220Z,12.10
2022-10-01T06:15:57.314Z,12.73
2022-10-01T06:18:24.416Z,11.98
2022-10-01T06:20:51.503Z,9.45
2022-10-01T06:23:18.575Z,9.55
2022-10-01T06:25:45.284Z,13.60
2022-10-01T06:28:14.595Z,11.43
2022-10-01T06:30:42.534Z,10.63
2022-10-01T06:33:11.291Z,15.35
2022-10-01T06:35:47.124Z,13.32
2022-10-01T06:38:17.053Z,12.27
2022-10-01T06:40:44.123Z,11.93
2022-10-01T06:43:11.220Z,15.48
2022-10-01T06:45:40.498Z,12.05
2022-10-01T06:48:07.716Z,12.02
2022-10-01T06:50:35.207Z,12.13
2022-10-01T06:53:02.738Z,13.30
2022-10-01T06:55:34.603Z,13.63
2022-10-01T06:58:03.999Z,10.25
2022-10-01T07:00:33.402Z,8.80
2022-10-01T07:03:00.971Z,10.98
2022-10-01T07:05:28.444Z,14.27
2022-10-01T07:07:55.565Z,10.15
2022-10-01T07:10:23.185Z,12.38
2022-10-01T07:12:50.986Z,8.98
2022-10-01T07:15:20.050Z,9.43
2022-10-01T07:17:49.499Z,10.00
2022-10-01T07:20:23.358Z,10.77
2022-10-01T07:22:50.579Z,16.70
2022-10-01T07:25:17.701Z,15.20
2022-10-01T07:27:44.824Z,13.07
2022-10-01T07:30:12.090Z,14.25
2022-10-01T07:32:39.179Z,5.97
2022-10-01T07:35:06.982Z,9.57
2022-10-01T07:37:34.185Z,9.85
2022-10-01T07:40:06.531Z,12.75
2022-10-01T07:42:34.824Z,9.25
2022-10-01T07:45:04.381Z,10.75
2022-10-01T07:47:31.753Z,9.38
2022-10-01T07:49:59.007Z,10.70
2022-10-01T07:52:26.373Z,12.15
2022-10-01T07:54:53.604Z,11.45
2022-10-01T07:57:20.377Z,8.82
2022-10-01T07:59:55.522Z,8.57
2022-10-01T08:02:24.300Z,5.60
2022-10-01T08:05:09.920Z,11.40
2022-10-01T08:07:37.116Z,7.78
2022-10-01T08:10:04.827Z,8.52
2022-10-01T08:12:31.897Z,12.68
2022-10-01T08:15:00.000Z,6.65
2022-10-01T08:17:29.458Z,8.60
2022-10-01T08:19:56.867Z,10.10
2022-10-01T08:22:24.113Z,9.90
2022-10-01T08:24:52.192Z,9.13
2022-10-01T08:27:19.042Z,7.28
2022-10-01T08:29:46.231Z,12.95
2022-10-01T08:32:13.570Z,9.55
2022-10-01T08:34:40.877Z,9.15
2022-10-01T08:37:08.276Z,11.85
2022-10-01T08:39:37.248Z,8.35
2022-10-01T08:42:35.574Z,8.88
2022-10-01T08:45:09.911Z,9.48
2022-10-01T08:47:41.797Z,6.88
2022-10-01T08:50:19.870Z,6.63
2022-10-01T08:52:53.915Z,8.02
2022-10-01T08:55:24.556Z,10.18
2022-10-01T08:58:01.886Z,11.23
2022-10-01T09:00:32.602Z,11.20
2022-10-01T09:03:04.309Z,11.90
2022-10-01T09:05:31.359Z,12.43
2022-10-01T09:08:15.161Z,6.93
2022-10-01T09:10:42.671Z,11.35
2022-10-01T09:13:40.526Z,9.25
2022-10-01T09:16:23.231Z,9.20
2022-10-01T09:18:50.287Z,9.27
2022-10-01T09:21:27.991Z,8.25
2022-10-01T09:24:10.462Z,9.30
2022-10-01T09:26:41.766Z,10.20
2022-10-01T09:29:15.808Z,8.70
2022-10-01T09:31:46.422Z,10.63
2022-10-01T09:34:16.929Z,9.43
2022-10-01T09:37:18.865Z,10.32
2022-10-01T09:40:10.084Z,7.80
2022-10-01T09:42:37.131Z,9.43
2022-10-01T09:45:05.052Z,10.15
2022-10-01T09:47:36.272Z,9.27
2022-10-01T09:50:06.499Z,10.75
2022-10-01T09:52:39.759Z,9.30
2022-10-01T09:55:18.518Z,12.23
2022-10-01T09:57:51.808Z,12.27
2022-10-01T10:00:21.103Z,11.35
2022-10-01T10:02:50.080Z,12.85
2022-10-01T10:05:28.441Z,8.95
2022-10-01T10:08:10.205Z,8.52
2022-10-01T10:10:40.033Z,8.02
2022-10-01T10:13:10.819Z,10.23
2022-10-01T10:15:57.423Z,12.88
2022-10-01T10:18:48.613Z,9.55
2022-10-01T10:21:19.343Z,10.02
2022-10-01T10:23:53.006Z,9.25
2022-10-01T10:26:35.564Z,8.93
2022-10-01T10:29:04.607Z,12.88
2022-10-01T10:31:47.198Z,9.00
2022-10-01T10:34:21.383Z,9.82
2022-10-01T10:36:51.244Z,11.38
2022-10-01T10:39:31.840Z,7.53
2022-10-01T10:41:59.865Z,8.90
2022-10-01T10:44:31.920Z,9.07
2022-10-01T10:47:05.322Z,10.43
2022-10-01T10:49:44.287Z,10.13
2022-10-01T10:52:32.175Z,7.00
2022-10-01T10:57:31.932Z,7.22
2022-10-01T11:00:02.418Z,8.95
2022-10-01T11:02:31.856Z,9.52
2022-10-01T11:05:03.774Z,10.18
2022-10-01T11:07:31.870Z,8.90
2022-10-01T11:10:23.259Z,7.20
2022-10-01T11:13:21.754Z,9.68
2022-10-01T11:16:03.863Z,9.43
2022-10-01T11:18:40.951Z,8.35
2022-10-01T11:21:07.966Z,11.77
2022-10-01T11:23:55.117Z,11.38
2022-10-01T11:26:40.443Z,9.90
2022-10-01T11:29:22.148Z,7.05
2022-10-01T11:32:02.827Z,7.90
2022-10-01T11:34:59.842Z,11.45
2022-10-01T11:37:57.268Z,9.48
2022-10-01T11:40:41.566Z,8.73
2022-10-01T11:43:30.147Z,12.85
2022-10-01T11:46:03.783Z,11.00
2022-10-01T11:48:37.867Z,8.20
2022-10-01T11:51:18.677Z,9.68
2022-10-01T11:53:56.090Z,7.97
2022-10-01T11:56:48.269Z,12.27
2022-10-01T11:59:33.336Z,8.82
2022-10-01T12:02:37.507Z,9.75
2022-10-01T12:05:10.237Z,10.65
2022-10-01T12:08:08.938Z,8.60
2022-10-01T12:10:50.115Z,8.27
2022-10-01T12:13:32.556Z,9.25
2022-10-01T12:16:23.029Z,10.60
2022-10-01T12:19:04.004Z,7.63
2022-10-01T12:21:49.901Z,10.25
2022-10-01T12:24:21.284Z,8.32
2022-10-01T12:27:22.472Z,7.90
2022-10-01T12:30:03.377Z,10.32
2022-10-01T12:33:12.478Z,10.57
2022-10-01T12:35:57.374Z,9.43
2022-10-01T12:38:49.136Z,7.25
2022-10-01T12:41:25.393Z,14.50
2022-10-01T12:44:10.859Z,8.95
2022-10-01T12:47:05.946Z,8.30
2022-10-01T12:50:06.937Z,10.93
2022-10-01T12:52:54.459Z,9.80
2022-10-01T12:55:21.512Z,8.13
2022-10-01T12:58:17.280Z,7.93
2022-10-01T13:01:10.042Z,10.27
2022-10-01T13:04:14.750Z,8.82
2022-10-01T13:07:00.619Z,10.32
2022-10-01T13:09:37.032Z,9.88
2022-10-01T13:12:47.354Z,10.20
2022-10-01T13:15:42.456Z,9.85
2022-10-01T13:18:20.844Z,13.43
2022-10-01T13:21:05.924Z,9.20
2022-10-01T13:23:49.771Z,12.05
2022-10-01T13:26:31.004Z,10.85
2022-10-01T13:29:32.487Z,11.45
2022-10-01T13:34:42.691Z,10.00
2022-10-01T13:37:11.640Z,10.93
2022-10-01T13:39:42.032Z,9.85
2022-10-01T13:42:23.198Z,10.50
2022-10-01T13:45:04.692Z,10.25
2022-10-01T13:47:33.775Z,11.20
2022-10-01T13:50:00.900Z,12.43
2022-10-01T13:52:31.768Z,14.60
2022-10-01T13:55:03.496Z,10.88
2022-10-01T13:57:38.608Z,11.00
2022-10-01T14:00:06.071Z,10.00
2022-10-01T14:02:38.129Z,11.80
2022-10-01T14:05:30.790Z,8.68
2022-10-01T14:08:23.552Z,12.23
2022-10-01T14:11:23.777Z,10.00
2022-10-01T14:14:10.416Z,10.55
2022-10-01T14:16:46.039Z,10.45
2022-10-01T14:19:21.423Z,8.88
2022-10-01T14:22:21.198Z,10.13
2022-10-01T14:25:16.729Z,11.85
2022-10-01T14:28:09.890Z,9.32
2022-10-01T14:31:09.647Z,8.32
2022-10-01T14:33:46.321Z,10.30
2022-10-01T14:36:28.373Z,11.45
2022-10-01T14:39:25.801Z,10.75
2022-10-01T14:41:55.125Z,13.23
2022-10-01T14:44:31.267Z,9.05
2022-10-01T14:49:32.493Z,11.80
2022-10-01T14:52:06.644Z,12.57
2022-10-01T14:54:47.204Z,13.43
2022-10-01T14:57:34.860Z,11.38
2022-10-01T15:00:08.950Z,11.75
2022-10-01T15:02:51.777Z,9.85
2022-10-01T15:05:27.345Z,8.25
2022-10-01T15:07:54.501Z,12.18
2022-10-01T15:10:25.613Z,8.18
2022-10-01T15:12:53.539Z,10.30
2022-10-01T15:15:38.352Z,10.05
2022-10-01T15:18:05.654Z,9.68
2022-10-01T15:20:32.763Z,9.63
2022-10-01T15:23:01.645Z,10.10
2022-10-01T15:25:32.329Z,10.73
2022-10-01T15:27:59.511Z,11.10
2022-10-01T15:30:27.610Z,11.68
2022-10-01T15:32:55.063Z,13.85
2022-10-01T15:35:23.256Z,9.60
2022-10-01T15:37:51.375Z,8.57
2022-10-01T15:40:34.495Z,9.68
2022-10-01T15:43:25.125Z,12.60
2022-10-01T15:46:15.094Z,11.20
2022-10-01T15:48:42.294Z,14.18
2022-10-01T15:51:26.542Z,9.52
2022-10-01T15:54:00.944Z,8.27
2022-10-01T15:56:31.039Z,15.00
2022-10-01T15:59:03.670Z,9.38
2022-10-01T16:01:39.317Z,9.40
2022-10-01T16:04:13.823Z,9.82
2022-10-01T16:06:58.745Z,11.70
2022-10-01T16:09:28.419Z,8.82
2022-10-01T16:11:59.621Z,12.65
2022-10-01T16:14:42.246Z,9.70
2022-10-01T16:17:17.829Z,9.23
2022-10-01T16:19:46.500Z,10.35
2022-10-01T16:22:19.181Z,9.25
2022-10-01T16:25:00.481Z,5.95
2022-10-01T16:27:49.079Z,5.82
2022-10-01T16:32:46.387Z,8.48
2022-10-01T16:35:21.535Z,9.48
2022-10-01T16:37:50.215Z,7.57
2022-10-01T16:40:25.395Z,12.35
2022-10-01T16:42:53.119Z,12.13
2022-10-01T16:45:25.429Z,12.40
2022-10-01T16:47:52.920Z,10.60
2022-10-01T16:50:21.554Z,9.07
2022-10-01T16:52:51.825Z,7.07
2022-10-01T16:55:26.819Z,9.38
2022-10-01T16:57:57.288Z,7.57
2022-10-01T17:00:26.307Z,10.52
2022-10-01T17:02:54.208Z,10.38
2022-10-01T17:05:27.719Z,9.68
2022-10-01T17:07:57.607Z,9.43
2022-10-01T17:10:24.802Z,9.88
2022-10-01T17:12:51.417Z,9.68
2022-10-01T17:15:23.095Z,12.63
2022-10-01T17:17:50.175Z,8.75
2022-10-01T17:20:17.226Z,8.95
2022-10-01T17:22:44.616Z,10.80
2022-10-01T17:25:16.743Z,12.55
2022-10-01T17:27:44.044Z,11.40
2022-10-01T17:30:11.498Z,13.18
2022-10-01T17:32:40.611Z,12.95
2022-10-01T17:35:09.011Z,11.52
2022-10-01T17:37:36.386Z,13.27
2022-10-01T17:40:04.609Z,9.05
2022-10-01T17:42:32.866Z,14.25
2022-10-01T17:44:59.594Z,11.05
2022-10-01T17:47:26.723Z,14.38
2022-10-01T17:49:53.838Z,15.35
2022-10-01T17:52:21.375Z,13.73
2022-10-01T17:54:48.648Z,15.93
2022-10-01T17:57:15.948Z,19.17
2022-10-01T17:59:44.948Z,18.90
2022-10-01T18:02:36.783Z,19.90
2022-10-01T18:05:01.162Z,17.70
2022-10-01T18:07:28.419Z,16.33
2022-10-01T18:09:55.548Z,15.30
2022-10-01T18:12:22.648Z,12.43
2022-10-01T18:14:52.553Z,13.63
2022-10-01T18:17:19.647Z,17.70
2022-10-01T18:19:53.260Z,13.65
2022-10-01T18:22:21.372Z,14.70
2022-10-01T18:24:48.480Z,16.05
2022-10-01T18:27:15.723Z,14.13
2022-10-01T18:29:43.063Z,15.55
2022-10-01T18:32:18.025Z,14.43
2022-10-01T18:34:57.968Z,20.45
2022-10-01T18:37:30.667Z,15.45
2022-10-01T18:40:11.188Z,14.15
2022-10-01T18:43:07.312Z,14.90
2022-10-01T18:45:55.857Z,15.35
2022-10-01T18:48:41.568Z,14.43
2022-10-01T18:51:11.647Z,16.85
2022-10-01T18:53:38.891Z,17.15
2022-10-01T18:56:28.279Z,16.55
2022-10-01T18:59:18.744Z,14.35
2022-10-01T19:02:01.928Z,16.23
2022-10-01T19:04:48.291Z,12.98
2022-10-01T19:07:33.975Z,15.50
2022-10-01T19:10:13.615Z,12.32
2022-10-01T19:12:46.878Z,16.85
2022-10-01T19:15:32.743Z,15.07
2022-10-01T19:18:26.166Z,21.17
2022-10-01T19:21:19.022Z,44.72
2022-10-01T19:23:46.094Z,22.27
2022-10-01T19:26:32.200Z,16.98
2022-10-01T19:28:59.348Z,15.10
2022-10-01T19:31:35.009Z,17.58
2022-10-01T19:34:21.235Z,13.23
2022-10-01T19:36:55.186Z,16.30
2022-10-01T19:39:23.829Z,21.75
2022-10-01T19:41:50.909Z,13.90
2022-10-01T19:44:21.406Z,14.20
2022-10-01T19:46:50.184Z,14.98
2022-10-01T19:49:22.126Z,13.63
2022-10-01T19:51:49.475Z,12.70
2022-10-01T19:54:19.335Z,15.15
2022-10-01T19:56:48.662Z,15.18
2022-10-01T19:59:22.086Z,14.20
2022-10-01T20:01:53.031Z,13.40
2022-10-01T20:04:26.979Z,12.27
2022-10-01T20:06:57.581Z,10.65
2022-10-01T20:09:41.094Z,11.77
2022-10-01T20:12:14.523Z,13.55
2022-10-01T20:15:08.752Z,13.27
2022-10-01T20:17:51.250Z,14.88
2022-10-01T20:20:24.275Z,14.10
2022-10-01T20:22:54.619Z,10.90
2022-10-01T20:25:27.674Z,11.88
2022-10-01T20:28:05.719Z,13.18
2022-10-01T20:30:38.423Z,9.55
2022-10-01T20:33:10.156Z,9.80
2022-10-01T20:35:57.798Z,9.88
2022-10-01T20:38:31.239Z,14.95
2022-10-01T20:40:59.547Z,13.15
2022-10-01T20:43:44.726Z,13.00
2022-10-01T20:46:32.582Z,13.30
2022-10-01T20:49:23.425Z,11.27
2022-10-01T20:52:01.007Z,11.23
2022-10-01T20:54:33.148Z,11.15
2022-10-01T20:57:00.365Z,14.38
2022-10-01T20:59:33.435Z,14.45
2022-10-01T21:02:05.228Z,12.05
2022-10-01T21:04:39.505Z,15.15
2022-10-01T21:07:16.572Z,14.68
2022-10-01T21:09:47.463Z,13.73
2022-10-01T21:12:19.243Z,11.40
2022-10-01T21:14:49.836Z,13.63
2022-10-01T21:17:17.070Z,13.13
2022-10-01T21:20:00.216Z,13.95
2022-10-01T21:22:29.499Z,11.30
2022-10-01T21:24:59.330Z,21.05
2022-10-01T21:27:48.186Z,13.77
2022-10-01T21:33:02.440Z,13.68
2022-10-01T21:35:49.181Z,20.55
2022-10-01T21:38:23.710Z,21.40
2022-10-01T21:41:04.159Z,18.92
2022-10-01T21:43:54.366Z,14.55
2022-10-01T21:46:37.825Z,20.13
2022-10-01T21:49:10.726Z,16.45
2022-10-01T21:51:51.087Z,14.23
2022-10-01T21:54:40.534Z,19.45
2022-10-01T21:57:07.756Z,12.07
2022-10-01T21:59:47.704Z,19.42
2022-10-01T22:02:35.452Z,17.20
2022-10-01T22:05:09.614Z,13.98
2022-10-01T22:07:39.527Z,15.80
2022-10-01T22:10:09.732Z,22.48
2022-10-01T22:15:09.032Z,20.00
2022-10-01T22:17:39.453Z,25.73
2022-10-01T22:20:07.241Z,16.80
2022-10-01T22:22:38.298Z,20.65
2022-10-01T22:25:07.507Z,22.85
2022-10-01T22:27:38.283Z,17.38
2022-10-01T22:30:15.790Z,17.10
2022-10-01T22:32:53.054Z,18.67
2022-10-01T22:35:26.966Z,19.45
2022-10-01T22:38:16.112Z,12.82
2022-10-01T22:40:46.096Z,14.30
2022-10-01T22:43:15.008Z,17.08
2022-10-01T22:45:42.463Z,18.90
2022-10-01T22:48:28.886Z,14.35
2022-10-01T22:51:08.319Z,17.38
2022-10-01T22:53:43.903Z,11.07
2022-10-01T22:56:14.931Z,8.52
2022-10-01T22:59:05.412Z,10.13
2022-10-01T23:01:51.503Z,12.10
2022-10-01T23:04:51.330Z,17.73
2022-10-01T23:07:18.837Z,9.50
2022-10-01T23:09:48.965Z,12.93
2022-10-01T23:12:40.466Z,21.45
2022-10-01T23:15:13.626Z,15.75
2022-10-01T23:17:46.958Z,14.00
2022-10-01T23:20:21.641Z,10.48
2022-10-01T23:22:48.888Z,14.07
2022-10-01T23:25:18.711Z,11.93
2022-10-01T23:28:02.079Z,6.55
2022-10-01T23:30:48.232Z,16.13
2022-10-01T23:33:34.315Z,13.38
2022-10-01T23:36:09.307Z,11.77
2022-10-01T23:38:56.150Z,9.82
2022-10-01T23:41:29.433Z,17.58
2022-10-01T23:43:59.838Z,13.60
2022-10-01T23:46:35.161Z,10.77
2022-10-01T23:49:05.439Z,10.75
2022-10-01T23:51:39.067Z,11.80
2022-10-01T23:54:12.125Z,7.25
2022-10-01T23:56:50.686Z,17.55
2022-10-01T23:59:34.899Z,13.82
